Time;durP1;ratioP1;P1;durP2;ratioP2;P2;SDS_P1;SDS_P2;PMS_P1;PMS_P2;Temp;Humidity;BMP_temperature;BMP_pressure;BME280_temperature;BME280_humidity;BME280_pressure;Samples;Min_cycle;Max_cycle;Signal;HPM_P1;HPM_P2
2023/06/30 00:01:48;;;;;;;;;;;;;;;35.40;24.24;100864.78;4983663;28;20496;-66
2023/06/30 00:04:18;;;;;;;1.20;0.43;;;;;;;35.44;25.07;100866.28;4988354;28;20415;-67
2023/06/30 00:06:49;;;;;;;2.42;0.60;;;;;;;35.50;24.11;100862.25;4989627;28;20058;-69
2023/06/30 00:09:18;;;;;;;1.85;0.50;;;;;;;35.51;24.83;100850.50;4986944;28;20057;-67
2023/06/30 00:11:51;;;;;;;1.80;0.40;;;;;;;35.61;25.27;100857.84;4987965;28;20519;-69
2023/06/30 00:14:20;;;;;;;1.15;0.35;;;;;;;35.66;23.73;100865.56;4984260;28;20562;-67
2023/06/30 00:16:49;;;;;;;1.77;0.30;;;;;;;35.74;24.07;100848.84;4992437;28;20054;-67
2023/06/30 00:19:18;;;;;;;0.40;0.30;;;;;;;35.73;23.16;100850.66;4992153;28;20084;-68
2023/06/30 00:21:48;;;;;;;1.65;0.40;;;;;;;35.69;25.47;100854.59;4990685;28;20493;-68
2023/06/30 00:24:16;;;;;;;0.80;0.30;;;;;;;35.68;23.55;100849.31;4983969;28;20168;-67
2023/06/30 00:26:47;;;;;;;0.50;0.30;;;;;;;35.65;23.63;100845.88;4991430;28;20057;-67
2023/06/30 00:29:15;;;;;;;0.40;0.30;;;;;;;35.65;23.81;100848.56;4991995;28;20438;-67
2023/06/30 00:31:44;;;;;;;2.08;0.30;;;;;;;35.65;23.40;100837.78;4991446;28;20496;-67
2023/06/30 00:34:15;;;;;;;0.40;0.30;;;;;;;35.66;23.63;100844.88;4994253;28;20709;-67
2023/06/30 00:36:43;;;;;;;;;;;;;;;35.61;23.30;100852.44;4994246;28;20404;-68
2023/06/30 00:39:12;;;;;;;1.02;0.30;;;;;;;35.60;23.02;100845.34;4995005;28;19930;-67
2023/06/30 00:41:41;;;;;;;1.67;0.30;;;;;;;35.59;23.14;100843.59;4992449;28;20056;-68
2023/06/30 00:44:11;;;;;;;1.23;0.32;;;;;;;35.59;23.80;100840.91;4990129;28;20049;-68
2023/06/30 00:46:39;;;;;;;1.27;0.40;;;;;;;35.58;24.11;100847.28;4997411;28;20054;-67
2023/06/30 00:49:08;;;;;;;0.70;0.30;;;;;;;35.54;23.10;100844.94;4985675;28;20560;-68
2023/06/30 00:51:37;;;;;;;0.30;0.30;;;;;;;35.47;24.03;100835.59;4989775;28;20050;-68
2023/06/30 00:54:06;;;;;;;1.50;0.30;;;;;;;35.34;24.30;100835.63;4991147;28;20038;-68
2023/06/30 00:56:35;;;;;;;2.45;0.50;;;;;;;35.24;23.88;100832.75;4991101;28;20417;-67
2023/06/30 00:59:03;;;;;;;0.55;0.40;;;;;;;35.18;24.59;100833.19;4987879;28;20043;-67
2023/06/30 01:01:39;;;;;;;0.70;0.40;;;;;;;35.11;26.00;100827.41;4990233;28;20058;-67
2023/06/30 01:04:14;;;;;;;0.60;0.40;;;;;;;35.05;24.51;100819.78;4990970;28;20092;-67
2023/06/30 01:06:51;;;;;;;1.65;0.57;;;;;;;35.03;24.84;100824.41;4986672;28;20050;-67
2023/06/30 01:09:23;;;;;;;0.50;0.32;;;;;;;35.02;24.60;100820.81;4999028;28;20514;-68
2023/06/30 01:11:53;;;;;;;1.67;0.50;;;;;;;34.96;24.51;100821.28;4989070;28;20042;-68
2023/06/30 01:14:24;;;;;;;1.63;0.50;;;;;;;34.81;24.95;100817.00;4987533;28;20055;-67
2023/06/30 01:16:55;;;;;;;3.88;0.30;;;;;;;34.74;23.98;100813.91;4993253;28;20488;-66
2023/06/30 01:19:28;;;;;;;0.60;0.40;;;;;;;34.72;25.39;100815.81;4983071;28;20050;-67
2023/06/30 01:22:02;;;;;;;2.83;0.43;;;;;;;34.66;24.87;100813.59;4990466;28;20053;-68
2023/06/30 01:24:36;;;;;;;1.20;0.80;;;;;;;34.59;24.67;100814.94;4991474;28;20050;-67
2023/06/30 01:27:05;;;;;;;4.10;0.80;;;;;;;34.49;24.92;100814.75;4985784;28;20054;-68
2023/06/30 01:29:34;;;;;;;4.78;2.90;;;;;;;34.40;25.05;100821.59;4985596;28;20057;-67
2023/06/30 01:32:04;;;;;;;2.22;0.80;;;;;;;34.37;26.40;100816.47;4989941;28;20043;-67
2023/06/30 01:34:33;;;;;;;2.70;0.60;;;;;;;34.32;25.53;100807.88;4989839;28;20112;-66
2023/06/30 01:37:02;;;;;;;0.80;0.50;;;;;;;34.34;26.15;100818.53;4991139;28;20047;-68
2023/06/30 01:39:31;;;;;;;0.52;0.43;;;;;;;34.34;26.65;100822.06;4985925;28;20046;-69
2023/06/30 01:42:03;;;;;;;4.53;0.65;;;;;;;34.32;25.51;100813.25;4983628;28;20043;-67
2023/06/30 01:44:32;;;;;;;5.18;0.82;;;;;;;34.29;26.84;100824.19;4987908;28;20054;-67
2023/06/30 01:47:01;;;;;;;2.00;0.40;;;;;;;34.20;25.81;100823.00;4990643;28;20053;-67
2023/06/30 01:49:31;;;;;;;3.13;0.40;;;;;;;34.12;26.27;100819.13;4988353;28;20050;-69
2023/06/30 01:52:00;;;;;;;0.82;0.43;;;;;;;34.04;26.36;100816.94;4979457;28;20050;-67
2023/06/30 01:54:31;;;;;;;1.52;0.40;;;;;;;33.99;27.03;100816.38;4991598;28;20488;-67
2023/06/30 01:57:00;;;;;;;1.17;0.68;;;;;;;33.94;27.29;100819.38;4985026;28;20145;-67
2023/06/30 01:59:29;;;;;;;2.10;0.50;;;;;;;33.92;27.22;100820.44;4986683;28;20054;-67
2023/06/30 02:01:57;;;;;;;1.20;0.30;;;;;;;33.87;27.18;100823.44;4984522;28;20049;-68
2023/06/30 02:04:26;;;;;;;0.90;0.40;;;;;;;33.85;27.43;100820.00;4987308;28;20062;-70
2023/06/30 02:06:57;;;;;;;2.90;0.60;;;;;;;33.76;26.98;100820.63;4972276;28;20074;-70
2023/06/30 02:09:25;;;;;;;0.57;0.30;;;;;;;33.64;27.67;100808.03;4974196;28;20046;-68
2023/06/30 02:11:54;;;;;;;2.92;0.60;;;;;;;33.61;27.79;100821.66;4986276;28;20436;-67
2023/06/30 02:14:24;;;;;;;0.85;0.30;;;;;;;33.52;28.47;100818.56;4987986;28;20048;-68
2023/06/30 02:16:55;;;;;;;1.27;0.40;;;;;;;33.45;27.54;100821.78;4986030;28;20046;-68
2023/06/30 02:19:24;;;;;;;2.60;0.60;;;;;;;33.37;27.67;100822.25;4990535;28;20049;-69
2023/06/30 02:21:52;;;;;;;1.33;0.40;;;;;;;33.34;27.60;100826.00;4990759;28;20228;-68
2023/06/30 02:24:23;;;;;;;3.53;0.43;;;;;;;33.24;27.32;100824.88;4989790;28;20138;-70
2023/06/30 02:26:51;;;;;;;0.80;0.50;;;;;;;33.14;27.61;100831.78;4991890;28;20684;-67
2023/06/30 02:29:22;;;;;;;1.65;0.50;;;;;;;33.03;27.50;100827.06;4989218;28;20050;-67
2023/06/30 02:31:51;;;;;;;0.50;0.30;;;;;;;32.93;27.99;100825.94;4984625;28;20078;-68
2023/06/30 02:34:19;;;;;;;1.52;0.30;;;;;;;32.82;28.13;100829.28;4987136;28;20047;-69
2023/06/30 02:36:49;;;;;;;0.45;0.20;;;;;;;32.70;27.62;100828.25;4983762;28;20114;-67
2023/06/30 02:39:19;;;;;;;2.72;0.47;;;;;;;32.58;28.34;100825.47;4994977;28;20073;-68
2023/06/30 02:41:49;;;;;;;2.08;0.40;;;;;;;32.45;27.47;100828.84;4987988;28;20624;-68
2023/06/30 02:44:18;;;;;;;1.15;0.32;;;;;;;32.32;28.72;100828.75;4990976;28;20054;-68
2023/06/30 02:46:46;;;;;;;0.30;0.30;;;;;;;32.17;27.88;100835.03;4985972;28;20050;-68
2023/06/30 02:49:15;;;;;;;1.05;0.40;;;;;;;31.99;28.27;100838.81;4988270;28;20043;-68
2023/06/30 02:51:44;;;;;;;0.70;0.30;;;;;;;31.81;28.60;100840.69;4989798;28;20054;-67
2023/06/30 02:54:13;;;;;;;1.10;0.30;;;;;;;31.61;29.78;100844.53;4989790;28;20500;-68
2023/06/30 02:56:41;;;;;;;1.13;0.28;;;;;;;31.47;29.76;100848.88;4986469;28;20046;-67
2023/06/30 02:59:12;;;;;;;1.52;0.40;;;;;;;31.35;29.20;100851.31;4988314;28;20046;-67
2023/06/30 03:01:42;;;;;;;4.15;0.88;;;;;;;31.17;30.19;100850.53;4985901;28;20130;-68
2023/06/30 03:04:11;;;;;;;4.50;0.40;;;;;;;30.92;29.67;100849.19;4989819;28;20054;-67
2023/06/30 03:06:39;;;;;;;1.10;0.30;;;;;;;30.78;30.02;100854.38;4974085;28;20051;-68
2023/06/30 03:09:08;;;;;;;0.55;0.40;;;;;;;30.64;30.89;100857.78;4987060;28;20050;-68
2023/06/30 03:11:37;;;;;;;0.95;0.40;;;;;;;30.52;31.09;100858.47;4991564;28;20077;-66
2023/06/30 03:14:06;;;;;;;1.05;0.28;;;;;;;30.43;31.38;100863.31;4984976;28;20783;-66
2023/06/30 03:16:37;;;;;;;0.60;0.30;;;;;;;30.32;31.55;100863.00;4989468;28;20046;-67
2023/06/30 03:19:05;;;;;;;0.28;0.20;;;;;;;30.21;32.05;100865.31;4988565;28;20074;-68
2023/06/30 03:21:34;;;;;;;1.58;0.30;;;;;;;30.09;31.59;100871.28;4988369;28;20080;-67
2023/06/30 03:24:02;;;;;;;1.60;0.40;;;;;;;29.99;31.91;100870.91;4987725;28;20089;-67
2023/06/30 03:26:38;;;;;;;4.03;0.50;;;;;;;29.83;31.65;100881.47;4990194;28;20081;-67
2023/06/30 03:29:07;;;;;;;0.50;0.30;;;;;;;29.69;31.84;100884.81;4985411;28;20489;-66
2023/06/30 03:31:37;;;;;;;0.75;0.47;;;;;;;29.59;31.63;100891.47;4985166;28;20081;-66
2023/06/30 03:34:06;;;;;;;0.50;0.40;;;;;;;29.48;31.38;100892.00;4985206;28;20929;-66
2023/06/30 03:36:34;;;;;;;2.80;0.50;;;;;;;29.41;31.25;100898.53;4987578;28;20050;-65
2023/06/30 03:39:05;;;;;;;1.95;0.45;;;;;;;29.30;31.30;100899.03;4985852;28;20046;-67
2023/06/30 03:41:33;;;;;;;1.05;0.30;;;;;;;29.20;31.63;100903.91;4987610;28;20073;-66
2023/06/30 03:44:02;;;;;;;0.32;0.20;;;;;;;29.02;30.94;100900.28;4987113;28;20603;-69
2023/06/30 03:46:31;;;;;;;0.52;0.30;;;;;;;28.93;30.71;100895.38;4991929;28;20133;-67
2023/06/30 03:49:10;;;;;;;0.40;0.40;;;;;;;28.86;30.80;100898.34;4990860;28;20339;-66
2023/06/30 03:51:39;;;;;;;0.63;0.30;;;;;;;28.80;31.06;100899.50;4992157;28;20056;-66
2023/06/30 03:54:08;;;;;;;0.82;0.40;;;;;;;28.72;31.28;100896.31;4988552;28;20077;-68
2023/06/30 03:56:38;;;;;;;1.35;0.60;;;;;;;28.60;31.10;100909.22;4978255;28;20531;-67
2023/06/30 03:59:09;;;;;;;1.98;0.40;;;;;;;28.52;31.84;100907.81;4979162;28;20047;-67
2023/06/30 04:01:39;;;;;;;0.82;0.30;;;;;;;28.40;31.70;100917.16;4991424;28;20053;-68
2023/06/30 04:04:10;;;;;;;0.65;0.30;;;;;;;28.29;31.55;100908.75;4996091;28;20050;-66
2023/06/30 04:06:39;;;;;;;1.17;0.30;;;;;;;28.07;32.75;100883.06;4995274;28;20046;-67
2023/06/30 04:09:07;;;;;;;1.55;0.40;;;;;;;28.12;32.50;100912.13;4988728;28;20053;-67
2023/06/30 04:11:36;;;;;;;0.77;0.30;;;;;;;28.05;31.58;100919.50;4990072;28;20053;-67
2023/06/30 04:14:05;;;;;;;0.65;0.30;;;;;;;27.98;32.02;100920.69;4990863;28;20042;-67
2023/06/30 04:16:34;;;;;;;0.63;0.30;;;;;;;27.91;32.04;100920.06;4988952;28;20141;-66
2023/06/30 04:19:04;;;;;;;0.55;0.30;;;;;;;27.84;31.31;100925.69;4992405;28;20050;-66
2023/06/30 04:21:34;;;;;;;1.85;0.38;;;;;;;27.78;31.34;100940.03;4989717;28;20054;-67
2023/06/30 04:24:16;;;;;;;1.20;0.35;;;;;;;27.69;31.40;100935.94;4993101;28;20104;-67
2023/06/30 04:26:44;;;;;;;0.73;0.40;;;;;;;27.63;31.85;100936.22;4999153;28;20065;-67
2023/06/30 04:29:13;;;;;;;1.63;0.50;;;;;;;27.53;31.18;100941.00;4995687;28;20043;-67
2023/06/30 04:31:41;;;;;;;0.60;0.38;;;;;;;27.47;32.76;100951.00;4988529;28;20053;-67
2023/06/30 04:34:10;;;;;;;1.23;0.40;;;;;;;27.36;33.55;100962.88;4989680;28;20055;-67
2023/06/30 04:36:40;;;;;;;1.35;0.50;;;;;;;27.26;32.03;100957.97;4993501;28;20038;-67
2023/06/30 04:39:09;;;;;;;0.40;0.20;;;;;;;27.19;29.25;100965.28;4990276;28;20058;-67
2023/06/30 04:41:40;;;;;;;0.55;0.38;;;;;;;27.09;28.59;100961.22;4991004;28;20092;-67
2023/06/30 04:44:09;;;;;;;0.40;0.35;;;;;;;27.04;29.72;100968.50;4987413;28;20050;-67
2023/06/30 04:46:37;;;;;;;0.95;0.43;;;;;;;26.95;31.33;100977.63;4990034;28;20081;-67
2023/06/30 04:49:06;;;;;;;0.68;0.40;;;;;;;26.86;30.33;100975.31;4986864;28;20054;-67
2023/06/30 04:51:37;;;;;;;0.60;0.40;;;;;;;26.75;29.73;100983.63;4983006;28;20043;-66
2023/06/30 04:54:07;;;;;;;0.98;0.35;;;;;;;26.66;30.60;100981.28;4976023;28;20042;-66
2023/06/30 04:56:36;;;;;;;1.73;0.43;;;;;;;26.60;29.63;100977.06;4991128;28;20049;-67
2023/06/30 04:59:04;;;;;;;0.95;0.57;;;;;;;26.45;29.98;100981.06;4991793;28;20069;-67
2023/06/30 05:01:33;;;;;;;1.33;0.50;;;;;;;26.35;29.93;100989.38;4990196;28;20129;-67
2023/06/30 05:04:09;;;;;;;0.95;0.50;;;;;;;26.23;29.49;100995.97;4991927;28;20455;-67
2023/06/30 05:06:38;;;;;;;0.68;0.40;;;;;;;26.12;28.71;100994.50;4991578;28;20057;-68
2023/06/30 05:09:08;;;;;;;0.88;0.40;;;;;;;26.05;29.66;100992.09;4991517;28;20047;-65
2023/06/30 05:11:37;;;;;;;2.17;0.40;;;;;;;25.95;29.79;100987.97;4988272;28;20057;-66
2023/06/30 05:14:05;;;;;;;1.08;0.45;;;;;;;25.87;30.03;101004.13;4988094;28;20052;-68
2023/06/30 05:16:34;;;;;;;0.73;0.30;;;;;;;25.78;30.34;100999.94;4985422;28;20509;-67
2023/06/30 05:19:03;;;;;;;1.13;0.30;;;;;;;25.71;30.86;100999.25;4995378;28;20050;-66
2023/06/30 05:21:31;;;;;;;0.60;0.30;;;;;;;25.64;30.59;101002.97;4993896;28;20306;-66
2023/06/30 05:24:00;;;;;;;0.55;0.30;;;;;;;25.55;30.59;100990.00;4985058;28;20058;-68
2023/06/30 05:26:30;;;;;;;1.40;0.30;;;;;;;25.46;30.96;100995.56;4983267;28;20164;-67
2023/06/30 05:28:59;;;;;;;1.20;0.30;;;;;;;25.40;31.67;100998.38;4990789;28;20054;-66
2023/06/30 05:31:27;;;;;;;0.40;0.20;;;;;;;25.28;32.24;100987.22;4993758;28;20054;-66
2023/06/30 05:33:56;;;;;;;1.00;0.30;;;;;;;25.18;31.74;100991.03;4990112;28;20046;-64
2023/06/30 05:36:25;;;;;;;0.75;0.40;;;;;;;25.09;32.00;100985.97;4988710;28;20126;-68
2023/06/30 05:38:54;;;;;;;0.45;0.30;;;;;;;25.04;32.51;100990.53;4980793;28;20057;-66
2023/06/30 05:41:22;;;;;;;0.38;0.22;;;;;;;24.98;32.91;100990.69;4987812;28;20061;-66
2023/06/30 05:43:53;;;;;;;0.50;0.38;;;;;;;24.91;33.02;100992.63;4986256;28;20497;-68
2023/06/30 05:46:21;;;;;;;0.82;0.40;;;;;;;24.83;33.52;100995.47;4989473;28;20129;-69
2023/06/30 05:48:50;;;;;;;0.80;0.25;;;;;;;24.76;33.86;100982.41;4990171;28;20134;-67
2023/06/30 05:51:19;;;;;;;0.30;0.30;;;;;;;24.66;34.09;100995.03;4984629;28;20543;-68
2023/06/30 05:53:48;;;;;;;0.85;0.30;;;;;;;24.57;35.08;100996.13;4987022;28;20133;-68
2023/06/30 05:56:16;;;;;;;0.22;0.20;;;;;;;24.50;35.26;100996.31;4990979;28;20049;-69
2023/06/30 05:58:45;;;;;;;0.38;0.30;;;;;;;24.44;35.40;100990.25;4987261;28;20046;-68
2023/06/30 06:01:17;;;;;;;0.52;0.30;;;;;;;24.36;35.49;100988.69;4989565;28;20054;-68
2023/06/30 06:03:46;;;;;;;0.60;0.40;;;;;;;24.36;36.10;100992.19;4988991;28;20065;-67
2023/06/30 06:06:15;;;;;;;0.50;0.30;;;;;;;24.32;35.70;100994.94;4978480;28;20051;-66
2023/06/30 06:08:47;;;;;;;0.45;0.30;;;;;;;24.30;36.00;101002.03;4982249;28;20046;-67
2023/06/30 06:11:16;;;;;;;0.73;0.40;;;;;;;24.26;35.96;100995.97;4985600;28;20050;-67
2023/06/30 06:13:44;;;;;;;0.57;0.40;;;;;;;24.20;35.90;101011.97;4981644;28;20496;-68
2023/06/30 06:16:15;;;;;;;0.43;0.30;;;;;;;24.15;36.37;101003.28;4984833;28;20372;-67
2023/06/30 06:18:43;;;;;;;0.13;0.10;;;;;;;24.10;36.76;101011.31;4989221;28;20058;-67
2023/06/30 06:21:12;;;;;;;1.48;0.30;;;;;;;23.97;37.30;101010.72;4985732;28;20058;-67
2023/06/30 06:23:42;;;;;;;0.40;0.22;;;;;;;23.89;38.57;101010.03;4988891;28;20054;-69
2023/06/30 06:26:11;;;;;;;0.60;0.30;;;;;;;23.86;37.32;101011.84;4988529;28;20088;-68
2023/06/30 06:28:39;;;;;;;0.30;0.20;;;;;;;23.86;36.78;101017.13;4990693;28;20038;-68
2023/06/30 06:31:09;;;;;;;0.55;0.30;;;;;;;23.79;37.75;101016.38;4986495;28;20047;-66
2023/06/30 06:33:40;;;;;;;0.47;0.32;;;;;;;23.76;37.29;101021.75;4983864;28;20316;-67
2023/06/30 06:36:08;;;;;;;0.20;0.20;;;;;;;23.71;37.61;101026.19;4989477;28;20061;-66
2023/06/30 06:38:37;;;;;;;0.80;0.40;;;;;;;23.65;39.10;101029.00;4989359;28;20052;-68
2023/06/30 06:41:06;;;;;;;0.40;0.20;;;;;;;23.48;38.79;101024.91;4986552;28;20042;-68
2023/06/30 06:43:34;;;;;;;0.43;0.30;;;;;;;23.34;38.33;101029.56;4983341;28;20162;-67
2023/06/30 06:46:05;;;;;;;0.57;0.38;;;;;;;23.31;38.38;101029.66;4985580;28;20386;-67
2023/06/30 06:48:34;;;;;;;0.30;0.20;;;;;;;23.29;39.86;101028.81;4983057;28;20065;-67
2023/06/30 06:51:04;;;;;;;0.30;0.25;;;;;;;23.20;38.66;101033.38;4986391;28;20052;-67
2023/06/30 06:53:34;;;;;;;0.40;0.30;;;;;;;23.17;39.35;101036.03;4989765;28;20574;-67
2023/06/30 06:56:03;;;;;;;1.02;0.32;;;;;;;23.17;39.67;101049.25;4988220;28;20050;-67
2023/06/30 06:58:37;;;;;;;0.20;0.20;;;;;;;23.19;39.40;101051.88;4989118;28;20073;-68
2023/06/30 07:01:06;;;;;;;0.88;0.40;;;;;;;23.16;38.90;101052.78;4989304;28;20468;-67
2023/06/30 07:03:35;;;;;;;0.52;0.30;;;;;;;23.14;39.46;101057.22;4990215;28;20073;-69
2023/06/30 07:06:07;;;;;;;0.43;0.30;;;;;;;23.04;39.59;101058.28;4988209;28;20566;-68
2023/06/30 07:08:36;;;;;;;1.65;0.20;;;;;;;22.93;40.37;101057.53;4990691;28;20081;-68
2023/06/30 07:11:06;;;;;;;1.77;0.20;;;;;;;22.87;41.24;101062.94;4979359;28;20050;-67
2023/06/30 07:13:35;;;;;;;2.20;0.40;;;;;;;22.80;40.94;101062.19;4981470;28;20069;-66
2023/06/30 07:16:03;;;;;;;0.68;0.40;;;;;;;22.76;40.47;101063.97;4976247;28;20066;-67
2023/06/30 07:18:32;;;;;;;0.77;0.40;;;;;;;22.71;41.34;101070.22;4989695;28;20050;-66
2023/06/30 07:21:01;;;;;;;0.25;0.20;;;;;;;22.66;41.23;101072.94;4984754;28;20046;-68
2023/06/30 07:23:32;;;;;;;0.30;0.30;;;;;;;22.61;41.21;101074.78;4987494;28;20116;-68
2023/06/30 07:26:00;;;;;;;1.33;0.40;;;;;;;22.57;40.90;101078.38;4986884;28;20062;-67
2023/06/30 07:28:29;;;;;;;0.68;0.30;;;;;;;22.53;41.17;101077.53;4989745;28;20046;-67
2023/06/30 07:30:57;;;;;;;0.20;0.20;;;;;;;22.49;41.10;101075.81;4989833;28;20077;-66
2023/06/30 07:33:26;;;;;;;0.75;0.40;;;;;;;22.47;43.06;101079.38;4995269;28;20073;-66
2023/06/30 07:35:55;;;;;;;0.80;0.32;;;;;;;22.41;42.53;101085.63;4986089;28;20047;-67
2023/06/30 07:38:23;;;;;;;1.10;0.40;;;;;;;22.36;42.75;101087.47;4989917;28;20205;-67
2023/06/30 07:40:53;;;;;;;0.25;0.20;;;;;;;22.25;42.98;101077.06;4985482;28;20047;-67
2023/06/30 07:43:22;;;;;;;0.40;0.20;;;;;;;22.13;43.89;101077.19;4983949;28;20062;-69
2023/06/30 07:45:51;;;;;;;0.30;0.30;;;;;;;22.09;43.98;101086.03;4990695;28;20046;-68
2023/06/30 07:48:19;;;;;;;2.05;0.32;;;;;;;22.02;44.59;101087.88;4989751;28;20062;-68
2023/06/30 07:50:48;;;;;;;1.38;0.30;;;;;;;21.96;45.46;101091.44;4980366;28;20050;-68
2023/06/30 07:53:16;;;;;;;1.80;0.40;;;;;;;21.86;46.38;101084.53;4984400;28;20054;-68
2023/06/30 07:55:45;;;;;;;0.65;0.35;;;;;;;21.78;46.35;101090.78;4991205;28;20046;-68
2023/06/30 07:58:15;;;;;;;0.60;0.30;;;;;;;21.69;46.62;101090.03;4992959;28;20039;-71
2023/06/30 08:00:44;;;;;;;0.40;0.30;;;;;;;21.63;46.28;101091.84;4992136;28;20042;-67
2023/06/30 08:03:12;;;;;;;0.20;0.20;;;;;;;21.54;46.56;101083.13;4993473;28;20481;-67
2023/06/30 08:05:41;;;;;;;3.15;0.30;;;;;;;21.50;46.31;101086.69;4987480;28;20197;-69
2023/06/30 08:08:11;;;;;;;0.47;0.20;;;;;;;21.52;46.24;101084.06;4992897;28;20046;-70
2023/06/30 08:10:39;;;;;;;0.35;0.10;;;;;;;21.49;46.34;101082.31;4992910;28;20054;-67
2023/06/30 08:13:08;;;;;;;0.30;0.20;;;;;;;21.50;46.20;101086.69;4991166;28;20061;-68
2023/06/30 08:15:38;;;;;;;0.20;0.15;;;;;;;21.50;46.57;101091.94;4993136;28;20047;-66
2023/06/30 08:18:07;;;;;;;0.10;0.10;;;;;;;21.48;46.41;101091.09;4980783;28;20150;-67
2023/06/30 08:20:39;;;;;;;0.10;0.05;;;;;;;21.50;47.62;101088.47;4990474;28;20054;-67
2023/06/30 08:23:10;;;;;;;0.22;0.13;;;;;;;21.49;48.08;101092.84;4989977;28;20050;-67
2023/06/30 08:25:38;;;;;;;1.17;0.30;;;;;;;21.47;48.29;101099.03;4987157;28;20046;-68
2023/06/30 08:28:07;;;;;;;0.47;0.20;;;;;;;21.43;47.17;101100.81;4989868;28;20051;-68
2023/06/30 08:30:36;;;;;;;0.20;0.20;;;;;;;21.41;47.38;101105.22;4986958;28;20046;-67
2023/06/30 08:33:06;;;;;;;0.90;0.13;;;;;;;21.40;47.19;101107.84;4992275;28;20050;-69
2023/06/30 08:35:35;;;;;;;0.10;0.10;;;;;;;21.37;47.39;101111.34;4989382;28;20059;-69
2023/06/30 08:38:03;;;;;;;1.50;0.20;;;;;;;21.32;48.28;101114.03;4991726;28;20050;-67
2023/06/30 08:40:33;;;;;;;0.25;0.22;;;;;;;21.30;47.88;101117.56;4988632;28;20049;-69
2023/06/30 08:43:05;;;;;;;0.28;0.20;;;;;;;21.23;47.90;101114.09;4989376;28;20436;-67
2023/06/30 08:45:34;;;;;;;0.17;0.17;;;;;;;21.24;47.99;101109.75;4990307;28;20109;-67
2023/06/30 08:48:07;;;;;;;0.30;0.20;;;;;;;21.20;48.56;101115.91;4991934;28;20042;-68
2023/06/30 08:50:36;;;;;;;0.63;0.28;;;;;;;21.16;49.55;101116.81;4990362;28;20077;-68
2023/06/30 08:53:06;;;;;;;0.30;0.20;;;;;;;21.10;49.83;101117.75;4987015;28;20046;-69
2023/06/30 08:55:35;;;;;;;0.85;0.20;;;;;;;21.03;50.27;101116.06;4988476;28;20058;-67
2023/06/30 08:58:03;;;;;;;0.10;0.10;;;;;;;20.98;50.06;101116.09;4986186;28;20047;-69
2023/06/30 09:00:32;;;;;;;1.48;0.13;;;;;;;20.95;50.58;101120.50;4983592;28;20049;-69
2023/06/30 09:03:04;;;;;;;0.73;0.22;;;;;;;20.95;51.08;101117.88;4992284;28;20065;-68
2023/06/30 09:05:36;;;;;;;0.30;0.30;;;;;;;20.95;53.03;101118.72;4987998;28;20042;-66
2023/06/30 09:08:09;;;;;;;0.10;0.10;;;;;;;20.90;52.69;101110.00;4992437;28;20100;-67
2023/06/30 09:10:41;;;;;;;0.32;0.10;;;;;;;20.77;52.05;101108.34;4989316;28;20046;-67
2023/06/30 09:13:11;;;;;;;0.20;0.20;;;;;;;20.77;52.03;101113.59;4990467;28;20082;-69
2023/06/30 09:15:42;;;;;;;1.05;0.30;;;;;;;20.73;51.34;101101.34;4986339;28;20055;-67
2023/06/30 09:18:11;;;;;;;0.57;0.15;;;;;;;20.78;52.58;101120.63;4994766;28;20050;-67
2023/06/30 09:20:43;;;;;;;0.88;0.20;;;;;;;20.75;52.83;101120.63;4990580;28;20073;-67
2023/06/30 09:23:13;;;;;;;0.10;0.10;;;;;;;20.72;52.03;101116.28;4985619;28;20054;-66
2023/06/30 09:25:42;;;;;;;0.30;0.20;;;;;;;20.67;51.97;101118.94;4992161;28;20077;-67
2023/06/30 09:28:13;;;;;;;0.15;0.10;;;;;;;20.55;52.94;101124.25;4988881;28;20482;-67
2023/06/30 09:30:45;;;;;;;3.28;0.30;;;;;;;20.51;53.74;101128.63;4988085;28;20042;-67
2023/06/30 09:33:14;;;;;;;;;;;;;;;20.47;54.01;101126.91;4987970;28;20074;-66
2023/06/30 09:35:46;;;;;;;0.10;0.10;;;;;;;20.42;54.01;101122.56;4990148;28;20012;-67
2023/06/30 09:38:16;;;;;;;0.17;0.17;;;;;;;20.40;53.92;101124.31;4989666;28;20046;-66
2023/06/30 09:40:45;;;;;;;0.30;0.28;;;;;;;20.30;54.51;101124.38;4988397;28;20054;-66
2023/06/30 09:43:21;;;;;;;0.20;0.20;;;;;;;20.22;54.36;101120.88;4988997;28;20046;-66
2023/06/30 09:45:56;;;;;;;0.10;0.10;;;;;;;20.16;54.51;101125.28;4989370;28;20057;-67
2023/06/30 09:48:32;;;;;;;0.38;0.20;;;;;;;20.13;55.08;101128.81;4990888;28;20054;-66
2023/06/30 09:51:03;;;;;;;1.30;0.10;;;;;;;20.13;56.03;101120.91;4991503;28;20061;-66
2023/06/30 09:53:37;;;;;;;1.55;0.40;;;;;;;20.08;56.75;101127.97;4991177;28;20519;-66
2023/06/30 09:56:06;;;;;;;2.53;0.20;;;;;;;20.06;56.45;101127.09;4987875;28;20428;-66
2023/06/30 09:58:35;;;;;;;2.17;0.30;;;;;;;20.01;56.48;101128.88;4995741;28;20073;-67
2023/06/30 10:01:04;;;;;;;0.50;0.30;;;;;;;19.96;56.93;101128.88;4989057;28;20112;-66
2023/06/30 10:03:33;;;;;;;0.20;0.13;;;;;;;19.89;57.77;101127.16;4991119;28;20050;-66
2023/06/30 10:06:04;;;;;;;1.17;0.43;;;;;;;19.84;57.54;101129.78;4988960;28;20054;-66
2023/06/30 10:08:35;;;;;;;0.20;0.10;;;;;;;19.80;57.31;101127.19;4989726;28;20049;-66
2023/06/30 10:11:04;;;;;;;0.52;0.20;;;;;;;19.70;58.04;101131.59;4980666;28;20054;-66
2023/06/30 10:13:33;;;;;;;0.40;0.30;;;;;;;19.62;58.15;101138.56;4991314;28;20617;-67
2023/06/30 10:16:02;;;;;;;0.47;0.17;;;;;;;19.55;57.76;101135.06;4996718;28;20050;-66
2023/06/30 10:18:32;;;;;;;0.20;0.20;;;;;;;19.53;57.53;101133.31;4990068;28;20046;-67
2023/06/30 10:21:03;;;;;;;0.60;0.20;;;;;;;19.49;57.69;101140.31;4983634;28;20057;-68
2023/06/30 10:23:32;;;;;;;0.40;0.38;;;;;;;19.43;58.34;101143.84;4983924;28;20052;-67
2023/06/30 10:26:02;;;;;;;0.20;0.20;;;;;;;19.40;58.23;101140.31;4987911;28;20058;-67
2023/06/30 10:28:31;;;;;;;0.68;0.28;;;;;;;19.41;58.51;101140.34;4989688;28;20476;-67
2023/06/30 10:31:00;;;;;;;0.50;0.20;;;;;;;19.38;58.35;101135.09;4984667;28;20054;-67
2023/06/30 10:33:28;;;;;;;0.22;0.17;;;;;;;19.37;58.34;101135.94;4983742;28;20048;-66
2023/06/30 10:35:59;;;;;;;0.20;0.20;;;;;;;19.36;59.03;101142.09;4986197;28;20061;-67
2023/06/30 10:38:30;;;;;;;0.82;0.40;;;;;;;19.34;59.04;101146.47;4984671;28;20050;-67
2023/06/30 10:41:16;;;;;;;0.57;0.30;;;;;;;19.32;59.23;101142.09;4985158;28;20046;-67
2023/06/30 10:44:07;;;;;;;0.10;0.10;;;;;;;19.25;59.44;101144.72;4986809;28;20043;-66
2023/06/30 10:46:46;;;;;;;0.20;0.20;;;;;;;19.22;60.07;101134.22;4981368;28;20696;-67
2023/06/30 10:49:29;;;;;;;2.30;0.20;;;;;;;19.19;61.65;101138.59;4991023;28;20096;-66
2023/06/30 10:51:59;;;;;;;0.20;0.20;;;;;;;19.16;62.04;101138.59;4984424;28;20043;-66
2023/06/30 10:54:30;;;;;;;0.35;0.25;;;;;;;19.10;62.05;101138.59;4987660;28;20090;-67
2023/06/30 10:57:10;;;;;;;0.40;0.30;;;;;;;19.10;62.27;101141.19;4987872;28;20054;-67
2023/06/30 10:59:40;;;;;;;0.50;0.28;;;;;;;19.07;62.09;101141.22;4988673;28;20049;-67
2023/06/30 11:02:26;;;;;;;0.13;0.13;;;;;;;19.06;61.61;101142.97;4990425;28;20472;-66
2023/06/30 11:04:55;;;;;;;0.20;0.20;;;;;;;19.04;60.76;101144.72;4982224;28;20133;-66
2023/06/30 11:07:28;;;;;;;0.63;0.30;;;;;;;19.02;62.15;101146.44;4988866;28;20061;-67
2023/06/30 11:10:05;;;;;;;1.02;0.20;;;;;;;19.01;63.32;101144.69;4989684;28;20554;-66
2023/06/30 11:12:53;;;;;;;0.75;0.25;;;;;;;19.00;62.04;101150.81;4982623;28;20501;-66
2023/06/30 11:15:29;;;;;;;1.67;0.32;;;;;;;18.97;61.96;101149.06;4990073;28;20046;-66
2023/06/30 11:18:03;;;;;;;0.20;0.20;;;;;;;18.93;61.94;101151.69;4986591;28;20048;-66
2023/06/30 11:20:31;;;;;;;0.20;0.20;;;;;;;18.82;61.79;101133.31;4993643;28;20058;-67
2023/06/30 11:23:02;;;;;;;0.20;0.15;;;;;;;18.86;61.45;101145.56;4974587;28;20053;-66
2023/06/30 11:25:33;;;;;;;0.20;0.20;;;;;;;18.84;61.92;101142.91;4987553;28;20416;-66
2023/06/30 11:28:04;;;;;;;0.10;0.10;;;;;;;18.81;62.23;101148.16;4987502;28;20046;-66
2023/06/30 11:30:38;;;;;;;0.30;0.20;;;;;;;18.81;62.85;101149.94;4988677;28;20129;-66
2023/06/30 11:33:08;;;;;;;0.20;0.20;;;;;;;18.78;62.79;101152.53;4983397;28;20054;-66
2023/06/30 11:35:38;;;;;;;0.35;0.20;;;;;;;18.74;62.66;101156.88;4981125;28;20050;-66
2023/06/30 11:38:10;;;;;;;0.25;0.20;;;;;;;18.74;62.32;101153.38;4986088;28;20074;-67
2023/06/30 11:40:50;;;;;;;3.20;0.20;;;;;;;18.61;62.85;101145.47;4990130;28;20058;-66